sensor_id;sensor_type;location;lat;lon;timestamp;P1;durP1;ratioP1;P2;durP2;ratioP2
39502;SDS011;26970;49.900;10.774;2022-12-10T00:02:08;40.85;;;20.65;;
39502;SDS011;26970;49.900;10.774;2022-12-10T00:04:34;45.92;;;21.73;;
39502;SDS011;26970;49.900;10.774;2022-12-10T00:06:59;37.03;;;19.23;;
39502;SDS011;26970;49.900;10.774;2022-12-10T00:09:25;37.40;;;18.58;;
39502;SDS011;26970;49.900;10.774;2022-12-10T00:11:50;35.33;;;18.23;;
39502;SDS011;26970;49.900;10.774;2022-12-10T00:14:16;46.08;;;21.33;;
39502;SDS011;26970;49.900;10.774;2022-12-10T00:16:42;43.58;;;21.73;;
39502;SDS011;26970;49.900;10.774;2022-12-10T00:19:08;37.95;;;19.70;;
39502;SDS011;26970;49.900;10.774;2022-12-10T00:21:34;39.90;;;19.45;;
39502;SDS011;26970;49.900;10.774;2022-12-10T00:24:00;38.85;;;19.45;;
39502;SDS011;26970;49.900;10.774;2022-12-10T00:26:28;42.78;;;20.52;;
39502;SDS011;26970;49.900;10.774;2022-12-10T00:28:56;37.13;;;19.27;;
39502;SDS011;26970;49.900;10.774;2022-12-10T00:31:26;38.92;;;18.58;;
39502;SDS011;26970;49.900;10.774;2022-12-10T00:33:57;38.28;;;18.73;;
39502;SDS011;26970;49.900;10.774;2022-12-10T00:36:28;32.75;;;18.05;;
39502;SDS011;26970;49.900;10.774;2022-12-10T00:38:56;48.65;;;27.80;;
39502;SDS011;26970;49.900;10.774;2022-12-10T00:41:22;38.92;;;20.02;;
39502;SDS011;26970;49.900;10.774;2022-12-10T00:43:48;35.75;;;18.75;;
39502;SDS011;26970;49.900;10.774;2022-12-10T00:46:14;34.03;;;18.92;;
39502;SDS011;26970;49.900;10.774;2022-12-10T00:48:41;34.88;;;19.55;;
39502;SDS011;26970;49.900;10.774;2022-12-10T00:51:11;36.90;;;19.92;;
39502;SDS011;26970;49.900;10.774;2022-12-10T00:53:39;36.05;;;19.85;;
39502;SDS011;26970;49.900;10.774;2022-12-10T00:56:06;40.20;;;20.92;;
39502;SDS011;26970;49.900;10.774;2022-12-10T00:58:33;46.95;;;24.67;;
39502;SDS011;26970;49.900;10.774;2022-12-10T01:01:35;44.35;;;21.98;;
39502;SDS011;26970;49.900;10.774;2022-12-10T01:03:58;37.15;;;18.95;;
39502;SDS011;26970;49.900;10.774;2022-12-10T01:06:26;40.45;;;21.63;;
39502;SDS011;26970;49.900;10.774;2022-12-10T01:08:55;35.58;;;18.95;;
39502;SDS011;26970;49.900;10.774;2022-12-10T01:11:24;45.33;;;23.10;;
39502;SDS011;26970;49.900;10.774;2022-12-10T01:13:54;38.17;;;20.40;;
39502;SDS011;26970;49.900;10.774;2022-12-10T01:16:20;38.17;;;20.55;;
39502;SDS011;26970;49.900;10.774;2022-12-10T01:18:47;38.25;;;19.13;;
39502;SDS011;26970;49.900;10.774;2022-12-10T01:21:16;38.83;;;18.92;;
39502;SDS011;26970;49.900;10.774;2022-12-10T01:23:45;38.42;;;20.05;;
39502;SDS011;26970;49.900;10.774;2022-12-10T01:26:13;33.47;;;17.75;;
39502;SDS011;26970;49.900;10.774;2022-12-10T01:28:41;39.88;;;19.50;;
39502;SDS011;26970;49.900;10.774;2022-12-10T01:31:12;35.72;;;17.45;;
39502;SDS011;26970;49.900;10.774;2022-12-10T01:33:39;32.63;;;17.92;;
39502;SDS011;26970;49.900;10.774;2022-12-10T01:36:09;39.33;;;19.25;;
39502;SDS011;26970;49.900;10.774;2022-12-10T01:38:37;35.03;;;17.33;;
39502;SDS011;26970;49.900;10.774;2022-12-10T01:41:03;38.60;;;17.88;;
39502;SDS011;26970;49.900;10.774;2022-12-10T01:43:47;32.47;;;17.38;;
39502;SDS011;26970;49.900;10.774;2022-12-10T01:46:18;32.03;;;17.48;;
39502;SDS011;26970;49.900;10.774;2022-12-10T01:48:44;34.60;;;18.67;;
39502;SDS011;26970;49.900;10.774;2022-12-10T01:51:10;36.25;;;18.23;;
39502;SDS011;26970;49.900;10.774;2022-12-10T01:53:37;36.47;;;18.55;;
39502;SDS011;26970;49.900;10.774;2022-12-10T01:56:04;39.47;;;19.33;;
39502;SDS011;26970;49.900;10.774;2022-12-10T01:58:30;33.70;;;17.23;;
39502;SDS011;26970;49.900;10.774;2022-12-10T02:01:02;39.95;;;18.73;;
39502;SDS011;26970;49.900;10.774;2022-12-10T02:03:44;36.00;;;18.45;;
39502;SDS011;26970;49.900;10.774;2022-12-10T02:12:06;35.83;;;18.35;;
39502;SDS011;26970;49.900;10.774;2022-12-10T02:17:52;32.85;;;17.33;;
39502;SDS011;26970;49.900;10.774;2022-12-10T02:20:24;33.78;;;17.85;;
39502;SDS011;26970;49.900;10.774;2022-12-10T02:22:59;39.30;;;20.17;;
39502;SDS011;26970;49.900;10.774;2022-12-10T02:25:30;36.30;;;20.25;;
39502;SDS011;26970;49.900;10.774;2022-12-10T02:28:05;42.60;;;21.73;;
39502;SDS011;26970;49.900;10.774;2022-12-10T02:30:38;43.13;;;19.90;;
39502;SDS011;26970;49.900;10.774;2022-12-10T02:33:07;34.53;;;19.85;;
39502;SDS011;26970;49.900;10.774;2022-12-10T02:35:33;34.85;;;18.20;;
39502;SDS011;26970;49.900;10.774;2022-12-10T02:38:06;37.63;;;18.80;;
39502;SDS011;26970;49.900;10.774;2022-12-10T02:40:35;36.63;;;19.38;;
39502;SDS011;26970;49.900;10.774;2022-12-10T02:43:04;37.72;;;19.45;;
39502;SDS011;26970;49.900;10.774;2022-12-10T02:45:32;38.03;;;19.13;;
39502;SDS011;26970;49.900;10.774;2022-12-10T02:47:59;35.40;;;18.80;;
39502;SDS011;26970;49.900;10.774;2022-12-10T02:50:27;39.42;;;19.42;;
39502;SDS011;26970;49.900;10.774;2022-12-10T02:52:53;38.08;;;18.80;;
39502;SDS011;26970;49.900;10.774;2022-12-10T02:55:18;38.22;;;18.50;;
39502;SDS011;26970;49.900;10.774;2022-12-10T03:00:27;49.00;;;22.48;;
39502;SDS011;26970;49.900;10.774;2022-12-10T03:05:35;41.90;;;20.55;;
39502;SDS011;26970;49.900;10.774;2022-12-10T03:08:18;36.90;;;18.17;;
39502;SDS011;26970;49.900;10.774;2022-12-10T03:10:58;38.22;;;20.30;;
39502;SDS011;26970;49.900;10.774;2022-12-10T03:13:48;38.05;;;18.80;;
39502;SDS011;26970;49.900;10.774;2022-12-10T03:16:29;35.25;;;18.77;;
39502;SDS011;26970;49.900;10.774;2022-12-10T03:19:00;37.58;;;18.35;;
39502;SDS011;26970;49.900;10.774;2022-12-10T03:21:30;38.38;;;18.92;;
39502;SDS011;26970;49.900;10.774;2022-12-10T03:23:59;42.25;;;20.92;;
39502;SDS011;26970;49.900;10.774;2022-12-10T03:26:25;38.08;;;20.65;;
39502;SDS011;26970;49.900;10.774;2022-12-10T03:28:53;38.30;;;19.88;;
39502;SDS011;26970;49.900;10.774;2022-12-10T03:31:25;41.88;;;19.35;;
39502;SDS011;26970;49.900;10.774;2022-12-10T03:33:51;37.13;;;18.60;;
39502;SDS011;26970;49.900;10.774;2022-12-10T03:36:18;43.90;;;19.95;;
39502;SDS011;26970;49.900;10.774;2022-12-10T03:38:45;39.50;;;20.52;;
39502;SDS011;26970;49.900;10.774;2022-12-10T03:41:10;39.42;;;19.73;;
39502;SDS011;26970;49.900;10.774;2022-12-10T03:43:48;35.58;;;18.48;;
39502;SDS011;26970;49.900;10.774;2022-12-10T03:46:19;38.28;;;19.17;;
39502;SDS011;26970;49.900;10.774;2022-12-10T03:48:45;38.30;;;19.45;;
39502;SDS011;26970;49.900;10.774;2022-12-10T03:51:10;35.50;;;18.45;;
39502;SDS011;26970;49.900;10.774;2022-12-10T03:53:36;34.70;;;18.25;;
39502;SDS011;26970;49.900;10.774;2022-12-10T03:56:01;34.88;;;18.58;;
39502;SDS011;26970;49.900;10.774;2022-12-10T03:58:27;35.80;;;18.67;;
39502;SDS011;26970;49.900;10.774;2022-12-10T04:00:52;34.75;;;17.88;;
39502;SDS011;26970;49.900;10.774;2022-12-10T04:03:18;34.75;;;18.55;;
39502;SDS011;26970;49.900;10.774;2022-12-10T04:05:43;37.10;;;19.52;;
39502;SDS011;26970;49.900;10.774;2022-12-10T04:08:09;37.45;;;19.45;;
39502;SDS011;26970;49.900;10.774;2022-12-10T04:10:35;33.38;;;17.90;;
39502;SDS011;26970;49.900;10.774;2022-12-10T04:13:01;39.20;;;19.33;;
39502;SDS011;26970;49.900;10.774;2022-12-10T04:15:45;37.30;;;19.73;;
39502;SDS011;26970;49.900;10.774;2022-12-10T04:18:29;36.20;;;19.52;;
39502;SDS011;26970;49.900;10.774;2022-12-10T04:20:55;38.05;;;18.85;;
39502;SDS011;26970;49.900;10.774;2022-12-10T04:23:39;36.90;;;19.38;;
39502;SDS011;26970;49.900;10.774;2022-12-10T04:26:23;36.70;;;19.50;;
39502;SDS011;26970;49.900;10.774;2022-12-10T04:29:07;38.80;;;18.63;;
39502;SDS011;26970;49.900;10.774;2022-12-10T04:31:33;31.40;;;17.52;;
39502;SDS011;26970;49.900;10.774;2022-12-10T04:33:59;39.47;;;19.75;;
39502;SDS011;26970;49.900;10.774;2022-12-10T04:36:24;38.95;;;19.20;;
39502;SDS011;26970;49.900;10.774;2022-12-10T04:38:50;36.55;;;18.40;;
39502;SDS011;26970;49.900;10.774;2022-12-10T04:41:15;37.70;;;19.02;;
39502;SDS011;26970;49.900;10.774;2022-12-10T04:43:41;38.00;;;19.05;;
39502;SDS011;26970;49.900;10.774;2022-12-10T04:46:08;37.08;;;18.55;;
39502;SDS011;26970;49.900;10.774;2022-12-10T04:48:34;38.47;;;18.33;;
39502;SDS011;26970;49.900;10.774;2022-12-10T04:51:00;38.90;;;19.55;;
39502;SDS011;26970;49.900;10.774;2022-12-10T04:53:25;34.00;;;18.35;;
39502;SDS011;26970;49.900;10.774;2022-12-10T04:55:51;37.72;;;18.67;;
39502;SDS011;26970;49.900;10.774;2022-12-10T04:58:17;35.30;;;19.05;;
39502;SDS011;26970;49.900;10.774;2022-12-10T05:00:42;39.10;;;18.80;;
39502;SDS011;26970;49.900;10.774;2022-12-10T05:03:08;34.72;;;18.42;;
39502;SDS011;26970;49.900;10.774;2022-12-10T05:05:34;38.78;;;19.42;;
39502;SDS011;26970;49.900;10.774;2022-12-10T05:07:59;35.70;;;18.75;;
39502;SDS011;26970;49.900;10.774;2022-12-10T05:10:25;35.42;;;18.23;;
39502;SDS011;26970;49.900;10.774;2022-12-10T05:12:51;40.78;;;20.40;;
39502;SDS011;26970;49.900;10.774;2022-12-10T05:15:17;36.65;;;18.98;;
39502;SDS011;26970;49.900;10.774;2022-12-10T05:17:42;42.50;;;20.83;;
39502;SDS011;26970;49.900;10.774;2022-12-10T05:20:08;38.67;;;21.10;;
39502;SDS011;26970;49.900;10.774;2022-12-10T05:22:34;38.10;;;19.48;;
39502;SDS011;26970;49.900;10.774;2022-12-10T05:25:19;37.80;;;19.55;;
39502;SDS011;26970;49.900;10.774;2022-12-10T05:27:44;34.72;;;18.65;;
39502;SDS011;26970;49.900;10.774;2022-12-10T05:30:10;39.95;;;20.67;;
39502;SDS011;26970;49.900;10.774;2022-12-10T05:32:36;36.42;;;19.27;;
39502;SDS011;26970;49.900;10.774;2022-12-10T05:35:02;36.97;;;18.58;;
39502;SDS011;26970;49.900;10.774;2022-12-10T05:37:28;39.28;;;19.67;;
39502;SDS011;26970;49.900;10.774;2022-12-10T05:39:53;41.10;;;19.90;;
39502;SDS011;26970;49.900;10.774;2022-12-10T05:42:19;44.65;;;20.67;;
39502;SDS011;26970;49.900;10.774;2022-12-10T05:44:45;37.30;;;20.85;;
39502;SDS011;26970;49.900;10.774;2022-12-10T05:47:10;38.58;;;19.02;;
39502;SDS011;26970;49.900;10.774;2022-12-10T05:49:36;39.47;;;19.90;;
39502;SDS011;26970;49.900;10.774;2022-12-10T05:52:02;40.22;;;21.13;;
39502;SDS011;26970;49.900;10.774;2022-12-10T05:54:27;44.22;;;21.33;;
39502;SDS011;26970;49.900;10.774;2022-12-10T05:56:53;40.47;;;20.42;;
39502;SDS011;26970;49.900;10.774;2022-12-10T05:59:19;44.17;;;22.17;;
39502;SDS011;26970;49.900;10.774;2022-12-10T06:01:45;40.05;;;20.90;;
39502;SDS011;26970;49.900;10.774;2022-12-10T06:04:10;40.65;;;21.05;;
39502;SDS011;26970;49.900;10.774;2022-12-10T06:06:37;42.72;;;21.42;;
39502;SDS011;26970;49.900;10.774;2022-12-10T06:09:04;39.05;;;21.70;;
39502;SDS011;26970;49.900;10.774;2022-12-10T06:11:31;41.80;;;20.60;;
39502;SDS011;26970;49.900;10.774;2022-12-10T06:13:57;40.33;;;21.27;;
39502;SDS011;26970;49.900;10.774;2022-12-10T06:16:24;37.78;;;21.23;;
39502;SDS011;26970;49.900;10.774;2022-12-10T06:18:51;39.80;;;19.75;;
39502;SDS011;26970;49.900;10.774;2022-12-10T06:21:18;40.45;;;20.50;;
39502;SDS011;26970;49.900;10.774;2022-12-10T06:23:44;43.22;;;22.00;;
39502;SDS011;26970;49.900;10.774;2022-12-10T06:26:15;38.90;;;20.60;;
39502;SDS011;26970;49.900;10.774;2022-12-10T06:28:43;39.70;;;20.85;;
39502;SDS011;26970;49.900;10.774;2022-12-10T06:31:10;37.72;;;22.35;;
39502;SDS011;26970;49.900;10.774;2022-12-10T06:33:35;46.28;;;24.10;;
39502;SDS011;26970;49.900;10.774;2022-12-10T06:36:05;45.40;;;23.35;;
39502;SDS011;26970;49.900;10.774;2022-12-10T06:38:32;44.22;;;23.60;;
39502;SDS011;26970;49.900;10.774;2022-12-10T06:40:57;42.88;;;22.95;;
39502;SDS011;26970;49.900;10.774;2022-12-10T06:43:23;49.33;;;25.23;;
39502;SDS011;26970;49.900;10.774;2022-12-10T06:45:49;43.15;;;22.75;;
39502;SDS011;26970;49.900;10.774;2022-12-10T06:48:14;44.13;;;23.52;;
39502;SDS011;26970;49.900;10.774;2022-12-10T06:50:40;42.05;;;22.30;;
39502;SDS011;26970;49.900;10.774;2022-12-10T06:53:06;44.38;;;24.52;;
39502;SDS011;26970;49.900;10.774;2022-12-10T06:55:32;50.10;;;25.33;;
39502;SDS011;26970;49.900;10.774;2022-12-10T06:57:57;45.60;;;22.35;;
39502;SDS011;26970;49.900;10.774;2022-12-10T07:00:23;46.40;;;23.45;;
39502;SDS011;26970;49.900;10.774;2022-12-10T07:02:49;40.08;;;20.88;;
39502;SDS011;26970;49.900;10.774;2022-12-10T07:05:14;39.28;;;20.33;;
39502;SDS011;26970;49.900;10.774;2022-12-10T07:07:40;44.70;;;20.83;;
39502;SDS011;26970;49.900;10.774;2022-12-10T07:10:06;41.50;;;22.95;;
39502;SDS011;26970;49.900;10.774;2022-12-10T07:12:31;43.13;;;23.08;;
39502;SDS011;26970;49.900;10.774;2022-12-10T07:14:57;43.50;;;22.92;;
39502;SDS011;26970;49.900;10.774;2022-12-10T07:17:23;45.97;;;23.67;;
39502;SDS011;26970;49.900;10.774;2022-12-10T07:19:48;43.03;;;22.45;;
39502;SDS011;26970;49.900;10.774;2022-12-10T07:22:14;44.42;;;21.35;;
39502;SDS011;26970;49.900;10.774;2022-12-10T07:24:39;42.33;;;22.05;;
39502;SDS011;26970;49.900;10.774;2022-12-10T07:27:06;44.78;;;22.40;;
39502;SDS011;26970;49.900;10.774;2022-12-10T07:29:32;39.75;;;21.73;;
39502;SDS011;26970;49.900;10.774;2022-12-10T07:31:58;38.55;;;21.98;;
39502;SDS011;26970;49.900;10.774;2022-12-10T07:34:23;41.90;;;20.60;;
39502;SDS011;26970;49.900;10.774;2022-12-10T07:36:49;41.15;;;22.10;;
39502;SDS011;26970;49.900;10.774;2022-12-10T07:39:15;43.03;;;21.50;;
39502;SDS011;26970;49.900;10.774;2022-12-10T07:41:46;38.72;;;21.48;;
39502;SDS011;26970;49.900;10.774;2022-12-10T07:44:15;44.35;;;23.42;;
39502;SDS011;26970;49.900;10.774;2022-12-10T07:46:41;44.88;;;24.05;;
39502;SDS011;26970;49.900;10.774;2022-12-10T07:49:06;46.22;;;23.83;;
39502;SDS011;26970;49.900;10.774;2022-12-10T07:51:33;42.65;;;20.88;;
39502;SDS011;26970;49.900;10.774;2022-12-10T07:53:58;59.40;;;37.28;;
39502;SDS011;26970;49.900;10.774;2022-12-10T07:56:24;48.33;;;29.77;;
39502;SDS011;26970;49.900;10.774;2022-12-10T07:58:50;47.33;;;29.15;;
39502;SDS011;26970;49.900;10.774;2022-12-10T08:01:18;43.50;;;23.77;;
39502;SDS011;26970;49.900;10.774;2022-12-10T08:03:44;39.50;;;22.85;;
39502;SDS011;26970;49.900;10.774;2022-12-10T08:06:20;44.92;;;22.05;;
39502;SDS011;26970;49.900;10.774;2022-12-10T08:08:46;43.83;;;24.00;;
39502;SDS011;26970;49.900;10.774;2022-12-10T08:11:13;47.42;;;24.98;;
39502;SDS011;26970;49.900;10.774;2022-12-10T08:13:39;52.40;;;27.40;;
39502;SDS011;26970;49.900;10.774;2022-12-10T08:16:10;57.05;;;30.38;;
39502;SDS011;26970;49.900;10.774;2022-12-10T08:18:40;65.18;;;33.90;;
39502;SDS011;26970;49.900;10.774;2022-12-10T08:21:08;73.40;;;39.88;;
39502;SDS011;26970;49.900;10.774;2022-12-10T08:23:37;61.65;;;36.60;;
39502;SDS011;26970;49.900;10.774;2022-12-10T08:26:03;49.85;;;29.88;;
39502;SDS011;26970;49.900;10.774;2022-12-10T08:28:30;47.65;;;26.00;;
39502;SDS011;26970;49.900;10.774;2022-12-10T08:30:55;43.65;;;23.25;;
39502;SDS011;26970;49.900;10.774;2022-12-10T08:33:21;38.25;;;20.35;;
39502;SDS011;26970;49.900;10.774;2022-12-10T08:35:46;43.72;;;23.05;;
39502;SDS011;26970;49.900;10.774;2022-12-10T08:38:12;44.78;;;20.83;;
39502;SDS011;26970;49.900;10.774;2022-12-10T08:40:40;34.42;;;20.55;;
39502;SDS011;26970;49.900;10.774;2022-12-10T08:43:06;38.28;;;20.88;;
39502;SDS011;26970;49.900;10.774;2022-12-10T08:45:33;42.92;;;21.35;;
39502;SDS011;26970;49.900;10.774;2022-12-10T08:47:59;42.97;;;21.88;;
39502;SDS011;26970;49.900;10.774;2022-12-10T08:50:26;38.35;;;21.48;;
39502;SDS011;26970;49.900;10.774;2022-12-10T08:52:52;39.40;;;23.45;;
39502;SDS011;26970;49.900;10.774;2022-12-10T08:55:17;39.97;;;22.65;;
39502;SDS011;26970;49.900;10.774;2022-12-10T08:57:43;50.70;;;26.20;;
39502;SDS011;26970;49.900;10.774;2022-12-10T09:00:09;44.58;;;24.98;;
39502;SDS011;26970;49.900;10.774;2022-12-10T09:02:35;50.75;;;24.95;;
39502;SDS011;26970;49.900;10.774;2022-12-10T09:05:00;59.42;;;28.50;;
39502;SDS011;26970;49.900;10.774;2022-12-10T09:07:26;45.85;;;25.98;;
39502;SDS011;26970;49.900;10.774;2022-12-10T09:09:52;49.90;;;27.58;;
39502;SDS011;26970;49.900;10.774;2022-12-10T09:12:17;43.42;;;24.88;;
39502;SDS011;26970;49.900;10.774;2022-12-10T09:14:43;41.85;;;23.73;;
39502;SDS011;26970;49.900;10.774;2022-12-10T09:17:08;44.05;;;22.20;;
39502;SDS011;26970;49.900;10.774;2022-12-10T09:19:34;44.47;;;23.40;;
39502;SDS011;26970;49.900;10.774;2022-12-10T09:21:59;50.67;;;25.85;;
39502;SDS011;26970;49.900;10.774;2022-12-10T09:24:25;51.17;;;27.17;;
39502;SDS011;26970;49.900;10.774;2022-12-10T09:26:51;59.47;;;29.45;;
39502;SDS011;26970;49.900;10.774;2022-12-10T09:29:16;73.05;;;32.97;;
39502;SDS011;26970;49.900;10.774;2022-12-10T09:31:42;57.45;;;28.88;;
39502;SDS011;26970;49.900;10.774;2022-12-10T09:34:07;55.70;;;28.17;;
39502;SDS011;26970;49.900;10.774;2022-12-10T09:36:33;50.72;;;25.90;;
39502;SDS011;26970;49.900;10.774;2022-12-10T09:38:59;42.78;;;23.70;;
39502;SDS011;26970;49.900;10.774;2022-12-10T09:44:12;57.50;;;26.00;;
39502;SDS011;26970;49.900;10.774;2022-12-10T09:46:51;49.63;;;25.77;;
39502;SDS011;26970;49.900;10.774;2022-12-10T09:52:09;44.13;;;23.58;;
39502;SDS011;26970;49.900;10.774;2022-12-10T09:54:41;42.15;;;23.15;;
39502;SDS011;26970;49.900;10.774;2022-12-10T09:57:10;44.70;;;23.33;;
39502;SDS011;26970;49.900;10.774;2022-12-10T09:59:49;39.92;;;21.83;;
39502;SDS011;26970;49.900;10.774;2022-12-10T10:05:08;43.08;;;21.20;;
39502;SDS011;26970;49.900;10.774;2022-12-10T10:07:46;40.42;;;21.65;;
39502;SDS011;26970;49.900;10.774;2022-12-10T10:10:29;41.90;;;22.33;;
39502;SDS011;26970;49.900;10.774;2022-12-10T10:13:01;46.97;;;22.67;;
39502;SDS011;26970;49.900;10.774;2022-12-10T10:15:43;43.60;;;23.45;;
39502;SDS011;26970;49.900;10.774;2022-12-10T10:18:14;43.85;;;23.95;;
39502;SDS011;26970;49.900;10.774;2022-12-10T10:20:58;40.20;;;21.15;;
39502;SDS011;26970;49.900;10.774;2022-12-10T10:23:25;39.03;;;20.15;;
39502;SDS011;26970;49.900;10.774;2022-12-10T10:25:51;42.25;;;21.00;;
39502;SDS011;26970;49.900;10.774;2022-12-10T10:28:21;43.45;;;22.73;;
39502;SDS011;26970;49.900;10.774;2022-12-10T10:30:47;36.58;;;21.17;;
39502;SDS011;26970;49.900;10.774;2022-12-10T10:33:15;40.35;;;21.02;;
39502;SDS011;26970;49.900;10.774;2022-12-10T10:35:45;35.50;;;20.63;;
39502;SDS011;26970;49.900;10.774;2022-12-10T10:41:06;39.60;;;20.63;;
39502;SDS011;26970;49.900;10.774;2022-12-10T10:43:42;43.30;;;22.05;;
39502;SDS011;26970;49.900;10.774;2022-12-10T10:46:14;37.78;;;20.33;;
39502;SDS011;26970;49.900;10.774;2022-12-10T10:48:41;42.13;;;21.83;;
39502;SDS011;26970;49.900;10.774;2022-12-10T10:53:45;38.88;;;20.90;;
39502;SDS011;26970;49.900;10.774;2022-12-10T10:56:14;36.67;;;19.33;;
39502;SDS011;26970;49.900;10.774;2022-12-10T10:58:52;39.20;;;20.20;;
39502;SDS011;26970;49.900;10.774;2022-12-10T11:01:21;36.83;;;19.88;;
39502;SDS011;26970;49.900;10.774;2022-12-10T11:03:52;39.20;;;20.98;;
39502;SDS011;26970;49.900;10.774;2022-12-10T11:06:20;38.60;;;21.27;;
39502;SDS011;26970;49.900;10.774;2022-12-10T11:08:46;32.92;;;19.17;;
39502;SDS011;26970;49.900;10.774;2022-12-10T11:11:20;34.40;;;19.02;;
39502;SDS011;26970;49.900;10.774;2022-12-10T11:13:50;38.85;;;20.27;;
39502;SDS011;26970;49.900;10.774;2022-12-10T11:16:20;34.63;;;17.90;;
39502;SDS011;26970;49.900;10.774;2022-12-10T11:19:01;40.67;;;21.42;;
39502;SDS011;26970;49.900;10.774;2022-12-10T11:21:29;38.90;;;21.00;;
39502;SDS011;26970;49.900;10.774;2022-12-10T11:23:57;40.08;;;21.23;;
39502;SDS011;26970;49.900;10.774;2022-12-10T11:26:30;35.65;;;17.15;;
39502;SDS011;26970;49.900;10.774;2022-12-10T11:29:26;44.33;;;22.73;;
39502;SDS011;26970;49.900;10.774;2022-12-10T11:34:54;40.90;;;19.17;;
39502;SDS011;26970;49.900;10.774;2022-12-10T11:37:32;39.67;;;20.20;;
39502;SDS011;26970;49.900;10.774;2022-12-10T11:42:58;33.90;;;17.85;;
39502;SDS011;26970;49.900;10.774;2022-12-10T11:48:19;25.27;;;12.77;;
39502;SDS011;26970;49.900;10.774;2022-12-10T11:50:53;25.75;;;13.63;;
39502;SDS011;26970;49.900;10.774;2022-12-10T11:58:34;27.23;;;12.95;;
39502;SDS011;26970;49.900;10.774;2022-12-10T12:14:54;26.90;;;12.02;;
39502;SDS011;26970;49.900;10.774;2022-12-10T12:17:27;21.95;;;12.00;;
39502;SDS011;26970;49.900;10.774;2022-12-10T12:22:31;21.48;;;11.80;;
39502;SDS011;26970;49.900;10.774;2022-12-10T12:25:08;21.80;;;11.07;;
39502;SDS011;26970;49.900;10.774;2022-12-10T12:28:39;22.08;;;11.70;;
39502;SDS011;26970;49.900;10.774;2022-12-10T12:31:01;21.10;;;11.63;;
39502;SDS011;26970;49.900;10.774;2022-12-10T12:36:26;20.83;;;10.20;;
39502;SDS011;26970;49.900;10.774;2022-12-10T12:42:22;16.88;;;8.43;;
39502;SDS011;26970;49.900;10.774;2022-12-10T12:47:43;15.25;;;8.20;;
39502;SDS011;26970;49.900;10.774;2022-12-10T12:50:29;19.05;;;9.27;;
39502;SDS011;26970;49.900;10.774;2022-12-10T12:53:09;21.50;;;11.05;;
39502;SDS011;26970;49.900;10.774;2022-12-10T12:58:25;20.75;;;11.05;;
39502;SDS011;26970;49.900;10.774;2022-12-10T13:01:03;18.35;;;9.68;;
39502;SDS011;26970;49.900;10.774;2022-12-10T13:03:43;21.27;;;11.43;;
39502;SDS011;26970;49.900;10.774;2022-12-10T13:06:17;22.17;;;11.32;;
39502;SDS011;26970;49.900;10.774;2022-12-10T13:08:44;18.92;;;10.20;;
39502;SDS011;26970;49.900;10.774;2022-12-10T13:11:38;18.67;;;10.30;;
39502;SDS011;26970;49.900;10.774;2022-12-10T13:22:03;17.85;;;9.73;;
39502;SDS011;26970;49.900;10.774;2022-12-10T13:29:59;19.67;;;10.13;;
39502;SDS011;26970;49.900;10.774;2022-12-10T13:40:58;21.85;;;12.23;;
39502;SDS011;26970;49.900;10.774;2022-12-10T13:46:25;18.92;;;10.90;;
39502;SDS011;26970;49.900;10.774;2022-12-10T13:48:56;20.90;;;11.48;;
39502;SDS011;26970;49.900;10.774;2022-12-10T13:57:17;24.15;;;12.73;;
39502;SDS011;26970;49.900;10.774;2022-12-10T13:59:59;22.17;;;12.50;;
39502;SDS011;26970;49.900;10.774;2022-12-10T14:05:52;24.50;;;13.00;;
39502;SDS011;26970;49.900;10.774;2022-12-10T14:08:27;24.00;;;13.30;;
39502;SDS011;26970;49.900;10.774;2022-12-10T14:10:56;22.15;;;12.00;;
39502;SDS011;26970;49.900;10.774;2022-12-10T14:13:27;25.98;;;13.82;;
39502;SDS011;26970;49.900;10.774;2022-12-10T14:16:02;22.30;;;12.52;;
39502;SDS011;26970;49.900;10.774;2022-12-10T14:18:30;20.38;;;11.77;;
39502;SDS011;26970;49.900;10.774;2022-12-10T14:20:55;24.58;;;12.45;;
39502;SDS011;26970;49.900;10.774;2022-12-10T14:23:29;23.13;;;12.90;;
39502;SDS011;26970;49.900;10.774;2022-12-10T14:26:13;21.45;;;11.70;;
39502;SDS011;26970;49.900;10.774;2022-12-10T14:28:42;21.42;;;11.57;;
39502;SDS011;26970;49.900;10.774;2022-12-10T14:31:13;25.30;;;12.88;;
39502;SDS011;26970;49.900;10.774;2022-12-10T14:33:43;23.70;;;12.40;;
39502;SDS011;26970;49.900;10.774;2022-12-10T14:36:19;25.65;;;14.85;;
39502;SDS011;26970;49.900;10.774;2022-12-10T14:38:52;26.40;;;13.90;;
39502;SDS011;26970;49.900;10.774;2022-12-10T14:41:19;19.52;;;11.50;;
39502;SDS011;26970;49.900;10.774;2022-12-10T14:43:47;20.38;;;11.40;;
39502;SDS011;26970;49.900;10.774;2022-12-10T14:46:34;23.23;;;12.45;;
39502;SDS011;26970;49.900;10.774;2022-12-10T14:48:59;18.90;;;11.38;;
39502;SDS011;26970;49.900;10.774;2022-12-10T14:51:25;19.52;;;11.52;;
39502;SDS011;26970;49.900;10.774;2022-12-10T14:53:56;26.05;;;13.50;;
39502;SDS011;26970;49.900;10.774;2022-12-10T15:01:45;25.55;;;14.50;;
39502;SDS011;26970;49.900;10.774;2022-12-10T15:04:16;23.20;;;13.45;;
39502;SDS011;26970;49.900;10.774;2022-12-10T15:06:43;24.45;;;14.02;;
39502;SDS011;26970;49.900;10.774;2022-12-10T15:09:13;23.50;;;13.85;;
39502;SDS011;26970;49.900;10.774;2022-12-10T15:11:57;23.95;;;14.27;;
39502;SDS011;26970;49.900;10.774;2022-12-10T15:14:24;23.55;;;13.20;;
39502;SDS011;26970;49.900;10.774;2022-12-10T15:16:51;25.45;;;14.07;;
39502;SDS011;26970;49.900;10.774;2022-12-10T15:19:25;24.02;;;13.48;;
39502;SDS011;26970;49.900;10.774;2022-12-10T15:22:39;23.63;;;13.63;;
39502;SDS011;26970;49.900;10.774;2022-12-10T15:24:47;28.10;;;14.80;;
39502;SDS011;26970;49.900;10.774;2022-12-10T15:27:19;27.50;;;14.98;;
39502;SDS011;26970;49.900;10.774;2022-12-10T15:29:46;25.88;;;13.65;;
39502;SDS011;26970;49.900;10.774;2022-12-10T15:32:14;27.30;;;14.02;;
39502;SDS011;26970;49.900;10.774;2022-12-10T15:34:46;26.77;;;14.88;;
39502;SDS011;26970;49.900;10.774;2022-12-10T15:37:18;24.42;;;14.32;;
39502;SDS011;26970;49.900;10.774;2022-12-10T15:39:53;29.67;;;15.50;;
39502;SDS011;26970;49.900;10.774;2022-12-10T15:42:27;32.40;;;16.45;;
39502;SDS011;26970;49.900;10.774;2022-12-10T15:45:23;23.63;;;12.52;;
39502;SDS011;26970;49.900;10.774;2022-12-10T15:48:03;22.75;;;12.40;;
39502;SDS011;26970;49.900;10.774;2022-12-10T15:50:33;26.67;;;14.55;;
39502;SDS011;26970;49.900;10.774;2022-12-10T15:52:59;25.80;;;14.18;;
39502;SDS011;26970;49.900;10.774;2022-12-10T15:55:24;25.33;;;12.85;;
39502;SDS011;26970;49.900;10.774;2022-12-10T15:57:50;23.17;;;12.82;;
39502;SDS011;26970;49.900;10.774;2022-12-10T16:00:20;23.40;;;12.75;;
39502;SDS011;26970;49.900;10.774;2022-12-10T16:05:33;28.55;;;14.63;;
39502;SDS011;26970;49.900;10.774;2022-12-10T16:08:05;26.58;;;12.85;;
39502;SDS011;26970;49.900;10.774;2022-12-10T16:10:32;17.60;;;8.52;;
39502;SDS011;26970;49.900;10.774;2022-12-10T16:12:58;19.95;;;10.63;;
39502;SDS011;26970;49.900;10.774;2022-12-10T16:15:27;22.42;;;11.57;;